Terminal Aerodrome Forecast
Issued by NWS

Home | Current Version | Previous Version | Text Only | Print | Product List | Glossary On
Versions: 1 2 3 4 5 6 7 8 9 10 11 12 13 14 15 16
032
FTUS45 KRIW 230539
TAFCPR
TAF
KCPR 230539Z 2306/2406 05013KT P6SM VCSH OVC030
     FM230700 05018KT 2SM -SN OVC010
     FM231000 04018G30KT 1/2SM SN BLSN VV005
     FM231600 06017G25KT 1SM -SN BLSN OVC010
     FM240200 07015KT 3SM -SN OVC018=

USA.gov is the U.S. government's official web portal to all federal, state and local government web resources and services.